Time;durP1;ratioP1;P1;durP2;ratioP2;P2;SDS_P1;SDS_P2;PMS_P1;PMS_P2;Temp;Humidity;BMP_temperature;BMP_pressure;BME280_temperature;BME280_humidity;BME280_pressure;Samples;Min_cycle;Max_cycle;Signal;HPM_P1;HPM_P2
2022/05/01 08:35:55;;;;;;;5.25;1.45;;;16.30;99.90;;;;;;5090866;27;20387;-75
2022/05/01 08:38:23;;;;;;;3.25;1.13;;;16.20;99.90;;;;;;5091081;28;20025;-71
2022/05/01 08:40:52;;;;;;;4.38;1.02;;;16.10;99.90;;;;;;5090786;28;20063;-71
2022/05/01 08:43:21;;;;;;;4.28;1.08;;;16.10;99.90;;;;;;5090902;28;20107;-79
2022/05/01 08:45:54;;;;;;;3.78;1.13;;;16.10;99.90;;;;;;5090802;28;20103;-71
2022/05/01 08:48:36;;;;;;;8.68;1.45;;;16.10;99.90;;;;;;5089949;28;20493;-78
2022/05/01 08:51:05;;;;;;;14.50;1.27;;;16.10;99.90;;;;;;5089235;28;20418;-75
2022/05/01 08:53:33;;;;;;;4.70;0.98;;;16.10;99.90;;;;;;5072287;28;20107;-78
2022/05/01 08:56:01;;;;;;;4.15;1.33;;;16.00;99.90;;;;;;5088963;28;20028;-79
2022/05/01 08:58:30;;;;;;;8.35;1.80;;;16.10;99.90;;;;;;5087954;28;20021;-78
2022/05/01 09:01:00;;;;;;;5.38;1.60;;;16.10;99.90;;;;;;5074547;28;20025;-79
2022/05/01 09:03:28;;;;;;;6.90;1.73;;;16.10;99.90;;;;;;5084891;28;20111;-78
2022/05/01 09:05:55;;;;;;;4.03;1.27;;;16.10;99.90;;;;;;5069756;28;20105;-72
2022/05/01 09:08:24;;;;;;;5.40;1.00;;;16.00;99.90;;;;;;5069113;28;20103;-78
2022/05/01 09:10:52;;;;;;;8.70;1.40;;;16.00;99.90;;;;;;5069422;28;20513;-70
2022/05/01 09:13:25;;;;;;;4.03;0.70;;;15.90;99.90;;;;;;5068934;28;20377;-77
2022/05/01 09:15:53;;;;;;;5.82;1.08;;;16.00;99.90;;;;;;5068870;28;20021;-78
2022/05/01 09:18:21;;;;;;;8.57;1.65;;;16.00;99.90;;;;;;5069303;28;20535;-78
2022/05/01 09:21:07;;;;;;;5.28;1.30;;;16.00;99.90;;;;;;5069066;28;20020;-78
2022/05/01 09:23:42;;;;;;;4.75;1.38;;;16.00;99.90;;;;;;5071935;28;20025;-76
2022/05/01 09:26:12;;;;;;;4.40;1.17;;;16.00;99.90;;;;;;5069040;28;20059;-78
2022/05/01 09:28:59;;;;;;;4.30;1.20;;;15.90;99.90;;;;;;5072039;28;20040;-78
2022/05/01 09:31:46;;;;;;;3.55;0.80;;;15.90;99.90;;;;;;5068965;28;20074;-78
2022/05/01 09:34:36;;;;;;;4.95;1.17;;;15.90;99.90;;;;;;5068542;28;20083;-78
2022/05/01 09:37:18;;;;;;;4.20;1.40;;;15.80;99.90;;;;;;5068294;28;20013;-79
2022/05/01 09:39:52;;;;;;;3.30;1.02;;;15.70;99.90;;;;;;5068288;28;20024;-79
2022/05/01 09:42:21;;;;;;;5.22;1.17;;;15.70;99.90;;;;;;5068296;28;20386;-79
2022/05/01 09:45:14;;;;;;;3.80;1.70;;;15.60;99.90;;;;;;5068039;28;20105;-74
2022/05/01 09:47:43;;;;;;;4.88;1.83;;;15.60;99.90;;;;;;5055396;28;20017;-76
2022/05/01 09:50:13;;;;;;;9.82;2.28;;;15.60;99.90;;;;;;5055250;28;20013;-71
2022/05/01 09:52:55;;;;;;;7.55;1.95;;;15.50;99.90;;;;;;5055347;28;20017;-76
2022/05/01 09:55:23;;;;;;;4.00;1.40;;;15.50;99.90;;;;;;5054582;28;20033;-72
2022/05/01 09:58:02;;;;;;;10.43;1.65;;;15.40;99.90;;;;;;5055507;28;20470;-78
2022/05/01 10:00:46;;;;;;;9.43;1.40;;;15.40;99.90;;;;;;5054956;28;20111;-78
2022/05/01 10:03:31;;;;;;;7.70;1.75;;;15.40;99.90;;;;;;5057912;28;20401;-77
2022/05/01 10:05:59;;;;;;;4.07;1.40;;;15.40;99.90;;;;;;5056177;28;20420;-77
2022/05/01 10:08:27;;;;;;;4.82;1.05;;;15.30;99.90;;;;;;5055130;28;20020;-71
2022/05/01 10:11:05;;;;;;;6.00;1.88;;;15.30;99.90;;;;;;5054957;28;20114;-71
2022/05/01 10:13:36;;;;;;;7.15;1.92;;;15.30;99.90;;;;;;5055081;28;20477;-72
2022/05/01 10:16:08;;;;;;;4.72;1.40;;;15.20;99.90;;;;;;5054356;28;20025;-72
2022/05/01 10:18:36;;;;;;;8.88;1.83;;;15.20;99.90;;;;;;5070225;28;20378;-78
2022/05/01 10:21:05;;;;;;;4.15;1.55;;;15.20;99.90;;;;;;5054967;28;20083;-78
2022/05/01 10:23:37;;;;;;;7.55;1.55;;;15.20;99.90;;;;;;5054915;28;20017;-73
2022/05/01 10:26:22;;;;;;;4.15;1.00;;;15.10;99.90;;;;;;5054757;28;20373;-78
2022/05/01 10:29:16;;;;;;;5.00;1.60;;;15.10;99.90;;;;;;5054931;28;20096;-73
2022/05/01 10:32:22;;;;;;;4.43;1.58;;;15.10;99.90;;;;;;5070063;28;20044;-75
2022/05/01 10:35:08;;;;;;;8.15;1.35;;;15.10;99.90;;;;;;5054274;28;20132;-77
2022/05/01 10:37:56;;;;;;;4.43;1.73;;;15.00;99.90;;;;;;5054566;28;20013;-71
2022/05/01 10:40:24;;;;;;;4.97;1.65;;;15.00;99.90;;;;;;5054388;28;20032;-71
2022/05/01 10:42:52;;;;;;;8.45;1.42;;;15.00;99.90;;;;;;5054482;28;20021;-79
2022/05/01 10:45:22;;;;;;;4.25;1.50;;;15.00;99.90;;;;;;5054378;28;20062;-78
2022/05/01 10:47:54;;;;;;;6.57;1.65;;;15.00;99.90;;;;;;5054712;28;20049;-79
2022/05/01 10:50:28;;;;;;;5.60;1.27;;;14.90;99.90;;;;;;5054301;28;20492;-71
2022/05/01 10:53:11;;;;;;;4.03;1.55;;;14.90;99.90;;;;;;5054443;28;20033;-76
2022/05/01 10:55:53;;;;;;;6.10;1.40;;;14.90;99.90;;;;;;5054045;28;20091;-71
2022/05/01 10:58:30;;;;;;;5.60;1.67;;;14.90;99.90;;;;;;5053040;28;20117;-79
2022/05/01 11:00:58;;;;;;;11.18;2.42;;;14.90;99.90;;;;;;5054148;28;20031;-73
2022/05/01 11:03:30;;;;;;;3.78;0.95;;;14.90;99.90;;;;;;5053976;28;20028;-75
2022/05/01 11:06:03;;;;;;;4.20;1.48;;;14.90;99.90;;;;;;5054119;28;20058;-78
2022/05/01 11:08:39;;;;;;;7.43;1.10;;;14.90;99.90;;;;;;5054122;28;20071;-79
2022/05/01 11:11:08;;;;;;;;;;;14.90;99.90;;;;;;5054731;28;20104;-79
2022/05/01 11:13:38;;;;;;;8.70;2.22;;;14.90;99.90;;;;;;5053823;28;19905;-78
2022/05/01 11:16:07;;;;;;;4.63;1.27;;;14.90;99.90;;;;;;5053873;28;20469;-79
2022/05/01 11:18:38;;;;;;;3.78;2.15;;;14.90;99.90;;;;;;5054047;28;20359;-75
2022/05/01 11:21:28;;;;;;;4.00;1.60;;;14.90;99.90;;;;;;5053752;28;20025;-77
2022/05/01 11:24:01;;;;;;;5.20;1.50;;;14.90;99.90;;;;;;5053784;28;20470;-78
2022/05/01 11:26:29;;;;;;;6.80;2.22;;;14.80;99.90;;;;;;5053714;28;20478;-79
2022/05/01 11:29:19;;;;;;;2.15;1.25;;;14.80;99.90;;;;;;5053677;28;20025;-79
2022/05/01 11:31:48;;;;;;;3.65;1.58;;;14.80;99.90;;;;;;5053006;28;20482;-79
2022/05/01 11:34:23;;;;;;;3.10;1.23;;;14.80;99.90;;;;;;5069175;28;20044;-71
2022/05/01 11:36:58;;;;;;;9.90;1.77;;;14.70;99.90;;;;;;5073303;28;20112;-78
2022/05/01 11:39:47;;;;;;;5.25;1.88;;;14.80;99.90;;;;;;5073043;28;20032;-71
2022/05/01 11:42:33;;;;;;;3.38;1.45;;;14.70;99.90;;;;;;5089619;28;20546;-73
2022/05/01 11:45:03;;;;;;;4.30;1.88;;;14.70;99.90;;;;;;5073545;28;20033;-79
2022/05/01 11:47:33;;;;;;;6.38;1.75;;;14.70;99.90;;;;;;5062977;28;20424;-79
2022/05/01 11:50:01;;;;;;;7.63;1.30;;;14.80;99.90;;;;;;5052761;28;20020;-72
2022/05/01 11:52:28;;;;;;;7.70;1.30;;;14.80;99.90;;;;;;5054094;28;20364;-79
2022/05/01 11:55:06;;;;;;;5.72;2.05;;;14.90;99.90;;;;;;5073066;28;20056;-79
2022/05/01 12:03:13;;;;;;;5.75;1.50;;;15.00;99.90;;;;;;5072016;28;20051;-78
2022/05/01 12:05:46;;;;;;;8.50;1.48;;;15.00;99.90;;;;;;5072531;28;20048;-75
2022/05/01 12:08:15;;;;;;;5.00;1.27;;;15.10;99.90;;;;;;5072296;28;20036;-77
2022/05/01 12:10:43;;;;;;;7.28;0.75;;;15.10;99.90;;;;;;5071825;28;20020;-75
2022/05/01 12:13:25;;;;;;;11.20;1.48;;;15.10;99.90;;;;;;5071425;28;20070;-77
2022/05/01 12:15:53;;;;;;;9.55;2.15;;;15.10;99.90;;;;;;5072726;28;20493;-72
2022/05/01 12:18:23;;;;;;;3.08;1.15;;;15.10;99.90;;;;;;5072268;28;20021;-79
2022/05/01 12:20:51;;;;;;;5.40;1.40;;;15.10;99.90;;;;;;5072667;28;20024;-79
2022/05/01 12:23:22;;;;;;;4.18;1.58;;;15.10;99.90;;;;;;5072524;28;20415;-79
2022/05/01 12:25:51;;;;;;;7.32;1.13;;;15.20;99.90;;;;;;5072302;28;20017;-79
2022/05/01 12:28:20;;;;;;;5.53;1.50;;;15.20;99.90;;;;;;5072268;28;20412;-79
2022/05/01 12:30:51;;;;;;;7.57;1.25;;;15.20;99.90;;;;;;5071804;28;20027;-80
2022/05/01 12:33:24;;;;;;;4.97;0.90;;;15.20;99.90;;;;;;5066023;28;20044;-74
2022/05/01 12:35:56;;;;;;;10.10;1.58;;;15.20;99.90;;;;;;5065205;28;20123;-79
2022/05/01 12:38:26;;;;;;;7.53;1.60;;;15.30;99.90;;;;;;5069292;28;20021;-79
2022/05/01 12:43:51;;;;;;;5.30;1.25;;;15.30;99.90;;;;;;5072234;28;20015;-73
2022/05/01 12:46:23;;;;;;;8.80;1.13;;;15.20;99.90;;;;;;5071816;28;20021;-79
2022/05/01 12:48:50;;;;;;;10.75;1.27;;;15.20;99.90;;;;;;5071989;28;20016;-79
2022/05/01 12:51:17;;;;;;;4.95;0.80;;;15.20;99.90;;;;;;5071366;28;20047;-72
2022/05/01 12:53:45;;;;;;;4.18;0.90;;;15.10;99.90;;;;;;5072387;28;20020;-72
2022/05/01 12:56:21;;;;;;;6.68;1.25;;;15.10;99.90;;;;;;5072273;28;20028;-77
2022/05/01 12:58:50;;;;;;;6.32;1.10;;;15.10;99.90;;;;;;5072359;28;20020;-72
2022/05/01 13:01:27;;;;;;;5.65;0.93;;;15.10;99.90;;;;;;5071591;28;20027;-79
2022/05/01 13:03:57;;;;;;;4.95;1.17;;;15.10;99.90;;;;;;5072317;28;20104;-77
2022/05/01 13:06:25;;;;;;;5.97;1.45;;;15.00;99.90;;;;;;5072505;28;20024;-72
2022/05/01 13:08:52;;;;;;;5.28;1.40;;;15.00;99.90;;;;;;5071796;28;20071;-72
2022/05/01 13:11:21;;;;;;;5.40;1.52;;;14.90;99.90;;;;;;5071711;28;20054;-74
2022/05/01 13:13:55;;;;;;;4.97;1.50;;;14.90;99.90;;;;;;5071688;28;20012;-79
2022/05/01 13:16:47;;;;;;;4.57;1.27;;;14.80;99.90;;;;;;5071909;28;20024;-80
2022/05/01 13:19:20;;;;;;;4.32;1.55;;;14.70;99.90;;;;;;5071255;28;20085;-74
2022/05/01 13:21:54;;;;;;;6.45;1.85;;;14.70;99.90;;;;;;5074020;28;20048;-79
2022/05/01 13:24:23;;;;;;;2.90;1.55;;;14.60;99.90;;;;;;5075207;28;20024;-78
2022/05/01 13:26:54;;;;;;;6.50;1.70;;;14.60;99.90;;;;;;5074210;28;20024;-79
2022/05/01 13:29:23;;;;;;;4.28;1.45;;;14.50;99.90;;;;;;5073106;28;20017;-74
2022/05/01 13:31:50;;;;;;;7.82;2.17;;;14.50;99.90;;;;;;5075965;28;20021;-80
2022/05/01 13:34:18;;;;;;;7.85;1.67;;;14.40;99.90;;;;;;5072651;28;20111;-78
2022/05/01 13:36:46;;;;;;;5.25;1.35;;;14.40;99.90;;;;;;5075590;28;20478;-77
2022/05/01 13:39:13;;;;;;;4.60;1.25;;;14.30;99.90;;;;;;5075387;28;20078;-78
2022/05/01 13:44:44;;;;;;;5.53;1.30;;;14.30;99.90;;;;;;5075725;28;20090;-79
2022/05/01 13:47:14;;;;;;;8.05;1.45;;;14.30;99.90;;;;;;5075302;28;20485;-76
2022/05/01 13:49:42;;;;;;;4.10;1.00;;;14.30;99.90;;;;;;5073189;28;20036;-78
2022/05/01 13:52:10;;;;;;;6.00;1.70;;;14.30;99.90;;;;;;5075732;28;20052;-79
2022/05/01 13:54:38;;;;;;;9.32;1.90;;;14.30;99.90;;;;;;5072876;28;20024;-75
2022/05/01 13:57:06;;;;;;;4.90;1.38;;;14.30;99.90;;;;;;5075507;28;20016;-79
2022/05/01 13:59:34;;;;;;;6.50;1.50;;;14.30;99.90;;;;;;5075488;28;20027;-79
2022/05/01 14:02:01;;;;;;;5.97;1.38;;;14.30;99.90;;;;;;5075730;28;20020;-79
2022/05/01 14:04:29;;;;;;;5.20;0.98;;;14.30;99.90;;;;;;5076456;28;20467;-72
2022/05/01 14:06:56;;;;;;;9.70;1.63;;;14.30;99.90;;;;;;5075947;28;20040;-78
2022/05/01 14:09:24;;;;;;;6.32;1.33;;;14.30;99.90;;;;;;5075788;28;20020;-73
2022/05/01 14:11:55;;;;;;;3.63;0.85;;;14.30;99.90;;;;;;5075967;28;20027;-78
2022/05/01 14:14:23;;;;;;;6.30;1.35;;;14.30;99.90;;;;;;5075629;28;20060;-73
2022/05/01 14:16:51;;;;;;;21.33;1.27;;;14.20;99.90;;;;;;5075682;28;20112;-79
2022/05/01 14:19:25;;;;;;;5.03;1.50;;;14.30;99.90;;;;;;5075720;28;20012;-76
2022/05/01 14:21:52;;;;;;;7.70;1.10;;;14.20;99.90;;;;;;5075848;28;20032;-73
2022/05/01 14:24:20;;;;;;;8.60;1.02;;;14.30;99.90;;;;;;5075780;28;20020;-72
2022/05/01 14:26:48;;;;;;;5.95;1.30;;;14.20;99.90;;;;;;5075445;28;20039;-76
2022/05/01 14:29:15;;;;;;;5.38;1.17;;;14.20;99.90;;;;;;5075709;28;20031;-77
2022/05/01 14:32:06;;;;;;;2.78;0.85;;;14.20;99.90;;;;;;5075127;28;20073;-78
2022/05/01 14:34:37;;;;;;;3.30;1.05;;;14.20;99.90;;;;;;5069751;28;20076;-78
2022/05/01 14:37:06;;;;;;;7.38;1.25;;;14.20;99.90;;;;;;5075479;28;20096;-77
2022/05/01 14:39:42;;;;;;;3.92;1.38;;;14.20;99.90;;;;;;5075307;28;20059;-73
2022/05/01 14:42:16;;;;;;;4.40;1.23;;;14.20;99.90;;;;;;5075359;28;20021;-77
2022/05/01 14:44:55;;;;;;;6.88;1.55;;;14.10;99.90;;;;;;5075355;28;20025;-77
2022/05/01 14:47:27;;;;;;;2.15;1.08;;;14.10;99.90;;;;;;5075103;28;20122;-72
2022/05/01 14:50:03;;;;;;;3.58;1.30;;;14.10;99.90;;;;;;5075230;28;20027;-72
2022/05/01 14:52:30;;;;;;;;;;;14.10;99.90;;;;;;5075570;28;20079;-72
2022/05/01 14:55:01;;;;;;;6.15;1.30;;;14.10;99.90;;;;;;5075063;28;19913;-72
2022/05/01 14:57:28;;;;;;;7.50;1.52;;;14.10;99.90;;;;;;5073800;28;20473;-74
2022/05/01 15:08:29;;;;;;;2.78;0.77;;;14.10;99.90;;;;;;5075019;28;20030;-72
2022/05/01 15:10:57;;;;;;;6.70;1.85;;;14.00;99.90;;;;;;5074765;28;20021;-72
2022/05/01 15:13:25;;;;;;;5.78;2.00;;;14.00;99.90;;;;;;5074286;28;20028;-73
2022/05/01 15:16:01;;;;;;;2.28;1.10;;;14.00;99.90;;;;;;5073024;28;20366;-78
2022/05/01 15:18:46;;;;;;;4.57;1.42;;;14.00;99.90;;;;;;5074969;28;20024;-78
2022/05/01 15:22:20;;;;;;;3.05;1.30;;;14.00;99.90;;;;;;5074811;28;20016;-78
2022/05/01 15:24:18;;;;;;;6.47;1.17;;;14.00;99.90;;;;;;5054735;28;20033;-77
2022/05/01 15:26:52;;;;;;;4.15;1.30;;;14.00;99.90;;;;;;5053829;28;20393;-75
2022/05/01 15:29:26;;;;;;;2.85;1.15;;;14.00;99.90;;;;;;5053794;28;20075;-78
2022/05/01 15:31:54;;;;;;;6.63;1.35;;;14.00;99.90;;;;;;5054331;28;20029;-72
2022/05/01 15:34:33;;;;;;;6.05;1.98;;;14.00;99.90;;;;;;5053938;28;20041;-77
2022/05/01 15:37:03;;;;;;;5.38;1.50;;;14.00;99.90;;;;;;5054387;28;20025;-72
2022/05/01 15:39:42;;;;;;;3.03;0.95;;;13.90;99.90;;;;;;5054162;28;20031;-78
2022/05/01 15:42:17;;;;;;;4.22;1.20;;;13.90;99.90;;;;;;5054309;28;20025;-72
2022/05/01 15:44:52;;;;;;;3.38;1.33;;;13.90;99.90;;;;;;5053730;28;20031;-76
2022/05/01 15:47:31;;;;;;;3.95;1.25;;;13.90;99.90;;;;;;5054231;28;20397;-78
2022/05/01 15:55:33;;;;;;;7.20;2.05;;;13.90;99.90;;;;;;5053756;28;20519;-72
2022/05/01 15:58:02;;;;;;;4.38;1.40;;;13.90;99.90;;;;;;5054052;28;20105;-72
2022/05/01 16:00:32;;;;;;;4.95;1.67;;;13.90;99.90;;;;;;5053691;28;20035;-78
2022/05/01 16:03:00;;;;;;;4.68;1.73;;;13.90;99.90;;;;;;5064704;28;20063;-74
2022/05/01 16:05:29;;;;;;;6.40;1.58;;;13.90;99.90;;;;;;5073089;28;20024;-72
2022/05/01 16:08:19;;;;;;;7.28;2.17;;;13.90;99.90;;;;;;5072957;28;20012;-72
2022/05/01 16:11:06;;;;;;;4.20;1.60;;;13.80;99.90;;;;;;5072808;28;20111;-72
2022/05/01 16:14:04;;;;;;;7.15;1.88;;;13.80;99.90;;;;;;5071190;28;20033;-77
2022/05/01 16:16:44;;;;;;;7.13;2.00;;;13.90;99.90;;;;;;5070846;28;20020;-71
2022/05/01 16:19:23;;;;;;;5.45;1.80;;;13.80;99.90;;;;;;5070675;28;20032;-71
2022/05/01 16:22:27;;;;;;;7.55;2.13;;;13.80;99.90;;;;;;5070641;28;20385;-77
2022/05/01 16:25:08;;;;;;;6.25;2.30;;;13.80;99.90;;;;;;5071066;28;20047;-73
2022/05/01 16:27:47;;;;;;;7.25;1.83;;;13.80;99.90;;;;;;5071355;28;20473;-71
2022/05/01 16:30:16;;;;;;;7.32;1.85;;;13.80;99.90;;;;;;5070545;28;20090;-72
2022/05/01 16:33:05;;;;;;;8.40;2.00;;;13.80;99.90;;;;;;5070727;28;20392;-72
2022/05/01 16:35:43;;;;;;;7.45;3.03;;;13.80;99.90;;;;;;5071714;28;20036;-72
2022/05/01 16:38:12;;;;;;;5.93;2.70;;;13.80;99.90;;;;;;5073394;28;20031;-77
2022/05/01 16:40:39;;;;;;;4.22;1.77;;;13.90;99.90;;;;;;5073047;28;20101;-72
2022/05/01 16:43:07;;;;;;;7.35;2.33;;;13.90;99.90;;;;;;5073371;28;20025;-71
2022/05/01 16:45:35;;;;;;;8.05;2.50;;;13.90;99.90;;;;;;5073213;28;20433;-71
2022/05/01 16:48:07;;;;;;;4.05;2.10;;;13.90;99.90;;;;;;5073412;28;20041;-72
2022/05/01 16:50:37;;;;;;;5.20;1.90;;;13.90;99.90;;;;;;5073241;28;20032;-72
2022/05/01 16:53:06;;;;;;;8.65;2.45;;;13.90;99.90;;;;;;5073064;28;20055;-72
2022/05/01 16:55:35;;;;;;;5.57;2.72;;;13.90;99.90;;;;;;5073311;28;20444;-72
2022/05/01 16:58:03;;;;;;;12.38;2.60;;;13.90;99.90;;;;;;5077183;28;20381;-77
2022/05/01 17:00:34;;;;;;;5.20;2.15;;;13.90;99.90;;;;;;5076997;28;20025;-71
2022/05/01 17:03:20;;;;;;;5.00;2.47;;;13.80;99.90;;;;;;5077135;28;20083;-77
2022/05/01 17:06:05;;;;;;;5.03;1.90;;;13.80;99.90;;;;;;5077002;28;20469;-76
2022/05/01 17:08:49;;;;;;;11.03;2.47;;;13.70;99.90;;;;;;5077189;28;20025;-72
2022/05/01 17:11:23;;;;;;;5.03;2.53;;;13.70;99.90;;;;;;5077134;28;20024;-77
2022/05/01 17:14:11;;;;;;;6.53;1.60;;;13.70;99.90;;;;;;5077395;28;20024;-78
2022/05/01 17:17:00;;;;;;;3.55;1.58;;;13.70;99.90;;;;;;5077045;28;20029;-72
2022/05/01 17:19:37;;;;;;;5.82;2.03;;;13.60;99.90;;;;;;5077144;28;20040;-78
2022/05/01 17:22:10;;;;;;;3.65;2.13;;;13.60;99.90;;;;;;5076645;28;20086;-72
2022/05/01 17:24:55;;;;;;;5.43;2.25;;;13.60;99.90;;;;;;5076634;28;20071;-71
2022/05/01 17:27:29;;;;;;;3.80;1.38;;;13.60;99.90;;;;;;5075527;28;20023;-77
2022/05/01 17:30:08;;;;;;;4.35;2.00;;;13.60;99.90;;;;;;5075176;28;20033;-73
2022/05/01 17:32:42;;;;;;;6.68;2.30;;;13.50;99.90;;;;;;5076586;28;20033;-72
2022/05/01 17:35:10;;;;;;;7.47;2.08;;;13.50;99.90;;;;;;5076212;28;20458;-75
2022/05/01 17:37:46;;;;;;;4.78;2.50;;;13.50;99.90;;;;;;5076611;28;20057;-71
2022/05/01 17:40:17;;;;;;;7.47;2.72;;;13.50;99.90;;;;;;5076400;28;20024;-77
2022/05/01 17:42:46;;;;;;;4.38;2.35;;;13.50;99.90;;;;;;5076315;28;20054;-73
2022/05/01 17:45:21;;;;;;;5.07;2.28;;;13.50;99.90;;;;;;5076260;28;20024;-73
2022/05/01 17:47:52;;;;;;;4.47;2.08;;;13.40;99.90;;;;;;5076179;28;20043;-77
2022/05/01 17:50:26;;;;;;;7.20;2.15;;;13.50;99.90;;;;;;5076026;28;20052;-72
2022/05/01 17:52:57;;;;;;;6.00;2.20;;;13.40;99.90;;;;;;5076085;28;20028;-77
2022/05/01 17:55:27;;;;;;;6.93;2.03;;;13.40;99.90;;;;;;5075981;28;20040;-77
2022/05/01 17:57:55;;;;;;;6.00;2.25;;;13.40;99.90;;;;;;5076131;28;20054;-73
2022/05/01 18:00:24;;;;;;;7.65;3.13;;;13.40;99.90;;;;;;5075958;28;20025;-77
2022/05/01 18:03:12;;;;;;;7.50;1.83;;;13.40;99.90;;;;;;5075149;28;20021;-71
2022/05/01 18:12:21;;;;;;;8.05;2.63;;;13.40;99.90;;;;;;5073216;28;20032;-70
2022/05/01 18:15:06;;;;;;;6.38;2.33;;;13.30;99.90;;;;;;5074070;28;20120;-79
2022/05/01 18:17:33;;;;;;;5.22;2.58;;;13.30;99.90;;;;;;5074665;28;20016;-74
2022/05/01 18:20:15;;;;;;;7.22;2.10;;;13.30;99.90;;;;;;5075278;28;20470;-78
2022/05/01 18:23:03;;;;;;;7.47;3.17;;;13.30;99.90;;;;;;5073130;28;20029;-78
2022/05/01 18:25:40;;;;;;;12.35;3.15;;;13.30;99.90;;;;;;5074394;28;20020;-78
2022/05/01 18:28:14;;;;;;;3.90;1.98;;;13.40;99.90;;;;;;5073715;28;20028;-78
2022/05/01 18:31:10;;;;;;;4.22;2.35;;;13.30;99.90;;;;;;5073312;28;20090;-71
2022/05/01 18:33:45;;;;;;;7.00;2.63;;;13.40;99.90;;;;;;5075490;28;20036;-71
2022/05/01 18:36:23;;;;;;;6.22;2.05;;;13.40;99.90;;;;;;5075515;28;20037;-75
2022/05/01 18:38:56;;;;;;;6.25;2.40;;;13.30;99.90;;;;;;5075416;28;20028;-79
2022/05/01 18:41:46;;;;;;;3.15;1.60;;;13.30;99.90;;;;;;5075432;28;20025;-78
2022/05/01 18:44:15;;;;;;;4.68;2.15;;;13.30;99.90;;;;;;5075374;28;20021;-70
2022/05/01 18:46:44;;;;;;;4.88;2.08;;;13.30;99.90;;;;;;5075392;28;20024;-70
2022/05/01 18:49:13;;;;;;;4.03;2.28;;;13.30;99.90;;;;;;5075011;28;20099;-71
2022/05/01 18:51:41;;;;;;;6.47;2.05;;;13.20;99.90;;;;;;5075161;28;20100;-78
2022/05/01 18:54:09;;;;;;;6.20;1.80;;;13.20;99.90;;;;;;5074806;28;20405;-78
2022/05/01 18:56:43;;;;;;;7.03;2.22;;;13.20;99.90;;;;;;5075131;28;20031;-70
2022/05/01 18:59:15;;;;;;;4.20;1.75;;;13.20;99.90;;;;;;5074936;28;20465;-72
2022/05/01 19:01:43;;;;;;;7.90;2.20;;;13.20;99.90;;;;;;5075162;28;20029;-70
2022/05/01 19:04:11;;;;;;;5.78;1.88;;;13.20;99.90;;;;;;5074353;28;20444;-70
2022/05/01 19:07:07;;;;;;;5.63;2.05;;;13.20;99.90;;;;;;5074831;28;20074;-78
2022/05/01 19:10:01;;;;;;;5.43;1.90;;;13.20;99.90;;;;;;5074748;28;20029;-74
2022/05/01 19:12:48;;;;;;;3.92;1.70;;;13.10;99.90;;;;;;5074504;28;20473;-78
2022/05/01 19:15:37;;;;;;;2.25;1.67;;;13.10;99.90;;;;;;5074321;28;20041;-78
2022/05/01 19:18:22;;;;;;;6.78;1.98;;;13.10;99.90;;;;;;5074189;28;20055;-79
2022/05/01 19:21:08;;;;;;;5.43;2.05;;;13.10;99.90;;;;;;5074442;28;20024;-72
2022/05/01 19:26:50;;;;;;;3.17;1.85;;;13.00;99.90;;;;;;5074710;28;20036;-79
2022/05/01 19:29:39;;;;;;;3.97;1.80;;;13.00;99.90;;;;;;5074406;28;20029;-78
2022/05/01 19:32:16;;;;;;;4.53;1.50;;;13.00;99.90;;;;;;5074417;28;20033;-76
2022/05/01 19:35:21;;;;;;;6.30;1.90;;;13.00;99.90;;;;;;5074000;28;20504;-78
2022/05/01 19:38:11;;;;;;;9.68;2.45;;;12.90;99.90;;;;;;5068212;28;20542;-70
2022/05/01 19:41:14;;;;;;;5.25;1.67;;;12.90;99.90;;;;;;5074362;28;20130;-78
2022/05/01 19:44:08;;;;;;;5.25;1.95;;;12.90;99.90;;;;;;5051831;28;20050;-73
2022/05/01 19:52:37;;;;;;;9.48;2.13;;;12.90;99.90;;;;;;5074061;28;20105;-78
2022/05/01 19:53:08;;;;;;;5.40;1.90;;;12.80;99.90;;;;;;5074057;28;20061;-70
2022/05/01 19:55:53;;;;;;;4.40;1.70;;;12.80;99.90;;;;;;5073494;28;20071;-79
2022/05/01 19:58:22;;;;;;;4.10;1.98;;;12.80;99.90;;;;;;5073882;28;20462;-69
2022/05/01 20:00:56;;;;;;;6.82;2.22;;;12.70;99.90;;;;;;5073706;28;20040;-78
2022/05/01 20:03:26;;;;;;;6.50;1.60;;;12.70;99.90;;;;;;5073706;28;20070;-78
2022/05/01 20:05:55;;;;;;;5.72;1.90;;;12.70;99.90;;;;;;5073570;28;20092;-78
2022/05/01 20:08:25;;;;;;;9.35;2.60;;;12.70;99.90;;;;;;5073594;28;20036;-78
2022/05/01 20:10:55;;;;;;;11.18;2.30;;;12.70;99.90;;;;;;5073512;28;20036;-77
2022/05/01 20:13:25;;;;;;;5.63;2.92;;;12.60;99.90;;;;;;5073728;28;20025;-69
2022/05/01 20:16:27;;;;;;;3.63;2.25;;;12.60;99.90;;;;;;5073485;28;20032;-69
2022/05/01 20:19:06;;;;;;;7.43;2.47;;;12.60;99.90;;;;;;5073388;28;20558;-77
2022/05/01 20:21:44;;;;;;;3.03;1.90;;;12.60;99.90;;;;;;5073690;28;20033;-79
2022/05/01 20:24:42;;;;;;;6.43;2.42;;;12.50;99.90;;;;;;5073696;28;20024;-78
2022/05/01 20:27:41;;;;;;;4.93;2.13;;;12.50;99.90;;;;;;5058026;28;20024;-76
2022/05/01 20:30:20;;;;;;;7.13;2.65;;;12.50;99.90;;;;;;5056377;28;20378;-79
2022/05/01 20:33:08;;;;;;;6.40;2.10;;;12.50;99.90;;;;;;5073465;28;20028;-69
2022/05/01 20:35:58;;;;;;;9.20;2.85;;;12.50;99.90;;;;;;5072966;28;20075;-73
2022/05/01 20:38:51;;;;;;;6.00;2.50;;;12.50;99.90;;;;;;5072990;28;20108;-78
2022/05/01 20:41:37;;;;;;;7.38;2.70;;;12.50;99.90;;;;;;5072001;28;20059;-70
2022/05/01 20:44:41;;;;;;;8.65;3.20;;;12.50;99.90;;;;;;5072676;28;20470;-74
2022/05/01 20:47:33;;;;;;;6.15;2.40;;;12.50;99.90;;;;;;5070458;28;20039;-78
2022/05/01 20:50:06;;;;;;;7.47;2.55;;;12.50;99.90;;;;;;5071948;28;20082;-76
2022/05/01 20:52:44;;;;;;;4.22;2.53;;;12.50;99.90;;;;;;5072848;28;20369;-78
2022/05/01 20:55:14;;;;;;;4.93;2.95;;;12.50;99.90;;;;;;5070509;28;20161;-79
2022/05/01 20:57:43;;;;;;;8.35;3.05;;;12.40;99.90;;;;;;5072406;28;20400;-79
2022/05/01 21:00:11;;;;;;;4.40;2.78;;;12.40;99.90;;;;;;5072365;28;20386;-73
2022/05/01 21:02:41;;;;;;;4.30;2.72;;;12.40;99.90;;;;;;5072691;28;20092;-78
2022/05/01 21:05:09;;;;;;;5.55;2.70;;;12.40;99.90;;;;;;5070181;28;20031;-79
2022/05/01 21:07:39;;;;;;;4.32;2.35;;;12.50;99.90;;;;;;5072528;28;20024;-79
2022/05/01 21:10:13;;;;;;;5.70;3.00;;;12.50;99.90;;;;;;5070033;28;20112;-78
2022/05/01 21:12:41;;;;;;;8.52;3.95;;;12.50;99.90;;;;;;5072621;28;20033;-78
2022/05/01 21:15:09;;;;;;;6.00;3.88;;;12.50;99.90;;;;;;5071319;28;20055;-79
2022/05/01 21:17:37;;;;;;;9.15;3.47;;;12.50;99.90;;;;;;5072812;28;20021;-78
2022/05/01 21:20:06;;;;;;;8.15;3.28;;;12.50;99.90;;;;;;5072309;28;20017;-79
2022/05/01 21:22:34;;;;;;;7.35;3.65;;;12.50;99.90;;;;;;5072431;28;20083;-79
2022/05/01 21:25:01;;;;;;;5.90;3.42;;;12.50;99.90;;;;;;5072273;28;20028;-79
2022/05/01 21:27:30;;;;;;;8.85;3.00;;;12.60;99.90;;;;;;5071682;28;20078;-79
2022/05/01 21:32:43;;;;;;;5.95;2.42;;;12.60;99.90;;;;;;5072032;28;20019;-78
2022/05/01 21:35:11;;;;;;;5.47;2.42;;;12.60;99.90;;;;;;5069275;28;20048;-77
2022/05/01 21:37:39;;;;;;;5.20;2.45;;;12.60;99.90;;;;;;5071819;28;20012;-76
2022/05/01 21:40:07;;;;;;;6.38;2.03;;;12.60;99.90;;;;;;5071616;28;20358;-78
2022/05/01 21:42:35;;;;;;;7.55;2.30;;;12.70;99.90;;;;;;5073556;28;20032;-78
2022/05/01 21:45:03;;;;;;;6.45;2.38;;;12.70;99.90;;;;;;5075284;28;20388;-78
2022/05/01 21:47:30;;;;;;;9.48;2.70;;;12.70;99.90;;;;;;5075060;28;20029;-77
2022/05/01 21:49:58;;;;;;;3.72;2.30;;;12.80;99.90;;;;;;5075185;28;20036;-78
2022/05/01 21:52:26;;;;;;;5.30;2.15;;;12.80;99.90;;;;;;5075053;28;20481;-77
2022/05/01 21:54:55;;;;;;;4.45;1.90;;;12.90;99.90;;;;;;5074854;28;20167;-78
2022/05/01 21:57:24;;;;;;;6.15;2.35;;;12.90;99.90;;;;;;5075025;28;20024;-77
2022/05/01 21:59:52;;;;;;;11.00;3.40;;;13.00;99.90;;;;;;5074312;28;20093;-77
2022/05/01 22:02:21;;;;;;;8.30;3.08;;;13.10;99.90;;;;;;5074516;28;20013;-77
2022/05/01 22:04:51;;;;;;;7.35;2.67;;;13.20;99.90;;;;;;5074999;28;20036;-78
2022/05/01 22:07:19;;;;;;;5.32;3.15;;;13.20;99.90;;;;;;5076062;28;20043;-79
2022/05/01 22:09:46;;;;;;;6.55;3.63;;;13.30;99.90;;;;;;5075031;28;20459;-76
2022/05/01 22:12:14;;;;;;;6.68;4.07;;;13.30;99.90;;;;;;5075087;28;20031;-76
2022/05/01 22:14:46;;;;;;;8.23;3.58;;;13.30;99.90;;;;;;5073089;28;20028;-72
2022/05/01 22:17:13;;;;;;;9.05;4.15;;;13.30;99.90;;;;;;5074778;28;20079;-76
2022/05/01 22:19:45;;;;;;;7.10;3.85;;;13.40;99.90;;;;;;5074769;28;20034;-74
2022/05/01 22:22:14;;;;;;;6.70;3.60;;;13.40;99.90;;;;;;5074745;28;20023;-76
2022/05/01 22:24:42;;;;;;;12.27;4.30;;;13.40;99.90;;;;;;5074623;28;20095;-76
2022/05/01 22:27:12;;;;;;;7.05;3.92;;;13.40;99.90;;;;;;5074455;28;20039;-76
2022/05/01 22:29:40;;;;;;;7.10;2.92;;;13.40;99.90;;;;;;5074727;28;20020;-76
2022/05/01 22:32:09;;;;;;;8.25;3.60;;;13.40;99.90;;;;;;5074671;28;20470;-76
2022/05/01 22:34:36;;;;;;;9.23;3.67;;;13.50;99.90;;;;;;5072300;28;20040;-76
2022/05/01 22:39:50;;;;;;;8.07;3.88;;;13.50;99.90;;;;;;5072795;28;20062;-78
2022/05/01 22:42:17;;;;;;;9.27;3.80;;;13.50;99.90;;;;;;5072321;28;20393;-78
2022/05/01 22:44:51;;;;;;;6.28;3.80;;;13.50;99.90;;;;;;5074729;28;20028;-78